This is the latest recevied weather packets stored in our database for station/object OK1FCB-1. If no packets are shown the sender has not sent any weather packets the latest 10 day(s).
| Time | Temp. | Humidity | Pressure | Rain* | Wind** | Luminosity | Snow |
|---|---|---|---|---|---|---|---|
| 1778139903 | 15.56° C | 68% | 1014.7 hPa | - | - | - | - |
| 1778139011 | 15.56° C | 70% | 1014.6 hPa | - | - | - | - |
| 1778139005 | 15.56° C | 70% | 1014.6 hPa | - | - | - | - |
| 1778138113 | 15.56° C | 70% | 1014.5 hPa | - | - | - | - |
| 1778138108 | 15.56° C | 70% | 1014.5 hPa | - | - | - | - |
| 1778137217 | 16.67° C | 66% | 1014.2 hPa | - | - | - | - |
| 1778137211 | 16.67° C | 66% | 1014.2 hPa | - | - | - | - |
| 1778136313 | 16.67° C | 66% | 1014.2 hPa | - | - | - | - |
| 1778130023 | 12.22° C | 81% | 1013 hPa | - | - | - | - |
| 1778129125 | 12.22° C | 82% | 1012.9 hPa | - | - | - | - |
| 1778128233 | 12.22° C | 82% | 1012.7 hPa | - | - | - | - |
| 1778128227 | 12.22° C | 82% | 1012.7 hPa | - | - | - | - |
| 1778127330 | 12.22° C | 82% | 1012.5 hPa | - | - | - | - |
| 1778126437 | 11.67° C | 82% | 1012.4 hPa | - | - | - | - |
| 1778126431 | 11.67° C | 82% | 1012.4 hPa | - | - | - | - |
| 1778124636 | 11.67° C | 82% | 1011.9 hPa | - | - | - | - |
| 1778123738 | 11.67° C | 82% | 1012 hPa | - | - | - | - |
| 1778122840 | 11.67° C | 82% | 1011.9 hPa | - | - | - | - |
| 1778121044 | 11.67° C | 82% | 1012.1 hPa | - | - | - | - |
| 1778120151 | 11.11° C | 82% | 1012 hPa | - | - | - | - |
| 1778120145 | 11.11° C | 82% | 1012 hPa | - | - | - | - |
| 1778118356 | 11.11° C | 82% | 1011.6 hPa | - | - | - | - |
| 1778118350 | 11.11° C | 82% | 1011.6 hPa | - | - | - | - |
| 1778117458 | 11.67° C | 82% | 1011.6 hPa | - | - | - | - |
| 1778117452 | 11.67° C | 82% | 1011.6 hPa | - | - | - | - |
* Rain since midnight (hover to see other rain measurements)
** Current wind speed in m/s (hover to see current wind gust speed)